Time;durP1;ratioP1;P1;durP2;ratioP2;P2;SDS_P1;SDS_P2;PMS_P1;PMS_P2;Temp;Humidity;BMP_temperature;BMP_pressure;BME280_temperature;BME280_humidity;BME280_pressure;Samples;Min_cycle;Max_cycle;Signal;HPM_P1;HPM_P2
2022/07/18 00:00:39;;;;;;;2.42;2.33;;;26.20;99.90;;;;;;5005194;28;20208;-76
2022/07/18 00:03:08;;;;;;;2.30;2.20;;;26.20;99.90;;;;;;5005074;28;20714;-76
2022/07/18 00:05:35;;;;;;;2.47;2.30;;;26.10;99.90;;;;;;5004642;28;20215;-75
2022/07/18 00:08:02;;;;;;;3.30;2.42;;;26.10;99.90;;;;;;5001648;28;20602;-75
2022/07/18 00:10:30;;;;;;;3.13;2.65;;;26.00;99.90;;;;;;5003189;28;20667;-73
2022/07/18 00:12:57;;;;;;;2.95;2.75;;;26.00;99.90;;;;;;5002909;28;20235;-74
2022/07/18 00:15:24;;;;;;;3.05;2.70;;;25.90;99.90;;;;;;5009912;28;20184;-73
2022/07/18 00:17:51;;;;;;;2.72;2.53;;;25.90;99.90;;;;;;5004946;28;20560;-73
2022/07/18 00:20:19;;;;;;;2.95;2.35;;;25.90;99.90;;;;;;5007993;28;20200;-75
2022/07/18 00:22:46;;;;;;;2.72;2.53;;;25.80;99.90;;;;;;5001505;28;20224;-75
2022/07/18 00:25:14;;;;;;;2.58;2.38;;;25.70;99.90;;;;;;5009079;28;20224;-74
2022/07/18 00:27:41;;;;;;;2.22;2.08;;;25.70;99.90;;;;;;5000370;28;20209;-78
2022/07/18 00:30:09;;;;;;;2.60;2.40;;;25.70;99.90;;;;;;5007855;28;20203;-76
2022/07/18 00:32:36;;;;;;;2.40;2.20;;;25.70;99.90;;;;;;5001219;28;20270;-74
2022/07/18 00:35:04;;;;;;;2.30;2.20;;;25.80;99.90;;;;;;5005700;28;20208;-76
2022/07/18 00:37:32;;;;;;;2.05;1.95;;;25.90;99.90;;;;;;5005906;28;20227;-75
2022/07/18 00:39:59;;;;;;;2.20;2.10;;;25.90;99.90;;;;;;5002361;28;20208;-75
2022/07/18 00:42:26;;;;;;;2.65;2.45;;;26.00;99.90;;;;;;5003203;28;20562;-77
2022/07/18 00:44:54;;;;;;;2.40;2.20;;;26.10;99.90;;;;;;5003768;28;20213;-72
2022/07/18 00:47:22;;;;;;;4.55;2.72;;;26.10;99.90;;;;;;5003260;28;20317;-76
2022/07/18 00:49:49;;;;;;;2.50;2.30;;;26.10;99.90;;;;;;5004597;28;20208;-75
2022/07/18 00:52:16;;;;;;;1.98;1.88;;;26.10;99.90;;;;;;5005883;28;20219;-76
2022/07/18 00:54:44;;;;;;;2.95;2.22;;;26.10;99.90;;;;;;5004599;28;20239;-75
2022/07/18 00:57:13;;;;;;;2.40;2.20;;;26.00;99.90;;;;;;5007886;28;20237;-75
2022/07/18 01:02:26;;;;;;;3.90;2.83;;;26.00;99.90;;;;;;5005785;28;20231;-76
2022/07/18 01:04:53;;;;;;;2.90;2.70;;;25.90;99.90;;;;;;5006089;28;20674;-75
2022/07/18 01:07:20;;;;;;;2.60;2.40;;;25.80;99.90;;;;;;5008246;28;20645;-77
2022/07/18 01:09:48;;;;;;;2.40;2.20;;;25.60;99.90;;;;;;5006504;28;20199;-76
2022/07/18 01:12:16;;;;;;;2.40;2.30;;;25.60;99.90;;;;;;5006309;28;20249;-76
2022/07/18 01:14:43;;;;;;;2.50;2.20;;;25.70;99.90;;;;;;5006130;28;20527;-76
2022/07/18 01:17:15;;;;;;;2.53;2.22;;;25.80;99.90;;;;;;5008600;28;20795;-76
2022/07/18 01:19:42;;;;;;;2.42;2.22;;;25.80;99.90;;;;;;5008109;28;20188;-76
2022/07/18 01:22:11;;;;;;;2.40;2.20;;;25.70;99.90;;;;;;5007752;28;20224;-77
2022/07/18 01:24:39;;;;;;;2.60;2.40;;;25.70;99.90;;;;;;5006946;28;20228;-76
2022/07/18 01:27:06;;;;;;;2.60;2.40;;;25.60;99.90;;;;;;5007902;28;20231;-76
2022/07/18 01:29:34;;;;;;;2.42;2.22;;;25.60;99.90;;;;;;5008112;28;20211;-76
2022/07/18 01:32:05;;;;;;;2.35;2.25;;;25.60;99.90;;;;;;5006763;28;20212;-76
2022/07/18 01:34:32;;;;;;;3.13;2.20;;;25.60;99.90;;;;;;5008342;28;20204;-75
2022/07/18 01:37:00;;;;;;;2.30;2.10;;;25.60;99.90;;;;;;5005991;28;20212;-76
2022/07/18 01:39:28;;;;;;;2.20;2.10;;;25.60;99.90;;;;;;5010884;28;20205;-75
2022/07/18 01:41:57;;;;;;;2.65;2.13;;;25.70;99.90;;;;;;5007554;28;20220;-73
2022/07/18 01:44:24;;;;;;;2.60;2.40;;;25.70;99.90;;;;;;5009349;28;20247;-76
2022/07/18 01:46:51;;;;;;;2.67;2.40;;;25.70;99.90;;;;;;5006542;28;20255;-76
2022/07/18 01:49:18;;;;;;;2.45;2.30;;;25.70;99.90;;;;;;5012489;28;20228;-76
2022/07/18 01:51:46;;;;;;;4.45;2.40;;;25.70;99.90;;;;;;5009615;28;20216;-75
2022/07/18 01:54:14;;;;;;;2.45;2.30;;;25.70;99.90;;;;;;5013490;28;20283;-76
2022/07/18 01:56:43;;;;;;;2.40;2.30;;;25.70;99.90;;;;;;5008563;28;20207;-76
2022/07/18 01:59:10;;;;;;;2.58;2.38;;;25.70;99.90;;;;;;5010260;28;20635;-76
2022/07/18 02:01:37;;;;;;;2.42;2.30;;;25.70;99.90;;;;;;5013004;28;20229;-76
2022/07/18 02:04:04;;;;;;;2.33;2.22;;;25.80;99.90;;;;;;5009246;28;20228;-76
2022/07/18 02:06:31;;;;;;;2.55;2.35;;;25.80;99.90;;;;;;5010103;28;20192;-75
2022/07/18 02:08:59;;;;;;;2.78;2.30;;;25.80;99.90;;;;;;5006969;28;20215;-76
2022/07/18 02:11:26;;;;;;;2.30;2.10;;;25.80;99.90;;;;;;5009191;28;20255;-75
2022/07/18 02:13:55;;;;;;;2.28;2.17;;;25.80;99.90;;;;;;5008438;28;20302;-77
2022/07/18 02:16:22;;;;;;;2.45;2.25;;;25.80;99.90;;;;;;5006154;28;20196;-77
2022/07/18 02:18:49;;;;;;;2.30;2.20;;;25.80;99.90;;;;;;5007248;28;20223;-76
2022/07/18 02:21:16;;;;;;;2.65;2.45;;;25.80;99.90;;;;;;5007159;28;20579;-76
2022/07/18 02:23:44;;;;;;;3.97;2.45;;;25.80;99.90;;;;;;5007102;28;20236;-75
2022/07/18 02:26:12;;;;;;;2.40;2.20;;;25.80;99.90;;;;;;5007449;28;20220;-76
2022/07/18 02:28:39;;;;;;;2.55;2.35;;;25.70;99.90;;;;;;5007747;28;20240;-76
2022/07/18 02:31:08;;;;;;;2.38;2.28;;;25.60;99.90;;;;;;5008749;28;20215;-76
2022/07/18 02:33:35;;;;;;;2.40;2.20;;;25.50;99.90;;;;;;5006606;28;20231;-76
2022/07/18 02:36:03;;;;;;;2.80;2.60;;;25.50;99.90;;;;;;5007726;28;20942;-76
2022/07/18 02:38:30;;;;;;;2.75;2.55;;;25.60;99.90;;;;;;5008757;28;20227;-75
2022/07/18 02:40:57;;;;;;;2.60;2.40;;;25.50;99.90;;;;;;5007835;28;20199;-75
2022/07/18 02:43:24;;;;;;;2.70;2.50;;;25.60;99.90;;;;;;5006189;28;20215;-76
2022/07/18 02:45:51;;;;;;;2.40;2.20;;;25.60;99.90;;;;;;5007727;28;20236;-77
2022/07/18 02:48:19;;;;;;;2.20;2.00;;;25.50;99.90;;;;;;5005709;28;20219;-74
2022/07/18 02:50:46;;;;;;;2.78;2.58;;;25.50;99.90;;;;;;5005357;28;20196;-73
2022/07/18 02:53:13;;;;;;;2.95;2.65;;;25.50;99.90;;;;;;5022217;23;20227;-80
2022/07/18 02:55:40;;;;;;;3.03;2.75;;;25.50;99.90;;;;;;5005529;28;20663;-80
2022/07/18 02:58:07;;;;;;;2.90;2.70;;;25.40;99.90;;;;;;5021799;28;20258;-78
2022/07/18 03:00:35;;;;;;;3.78;2.70;;;25.30;99.90;;;;;;5036807;28;20195;-80
2022/07/18 03:03:02;;;;;;;3.20;3.00;;;25.20;99.90;;;;;;5029850;28;20227;-78
2022/07/18 03:05:30;;;;;;;3.20;2.90;;;25.00;99.90;;;;;;5024359;28;20216;-79
2022/07/18 03:07:57;;;;;;;2.53;2.35;;;25.00;99.90;;;;;;5025000;28;20220;-78
2022/07/18 03:10:24;;;;;;;2.70;2.50;;;25.10;99.90;;;;;;5027139;28;20203;-80
2022/07/18 03:12:51;;;;;;;2.97;2.78;;;25.20;99.90;;;;;;5027758;28;20277;-80
2022/07/18 03:15:19;;;;;;;2.88;2.63;;;25.20;99.90;;;;;;5027235;28;20215;-78
2022/07/18 03:17:46;;;;;;;2.92;2.63;;;25.30;99.90;;;;;;5025786;28;20226;-78
2022/07/18 03:20:13;;;;;;;2.90;2.70;;;25.30;99.90;;;;;;5031251;28;20207;-78
2022/07/18 03:22:41;;;;;;;3.28;2.97;;;25.50;99.90;;;;;;5027453;28;20227;-79
2022/07/18 03:25:09;;;;;;;3.00;2.70;;;25.50;99.90;;;;;;5024990;28;20231;-79
2022/07/18 03:27:36;;;;;;;3.15;2.85;;;25.50;99.90;;;;;;5027785;28;20223;-78
2022/07/18 03:30:04;;;;;;;2.90;2.70;;;25.50;99.90;;;;;;5024697;28;20195;-79
2022/07/18 03:32:31;;;;;;;3.08;2.88;;;25.50;99.90;;;;;;5027355;28;20219;-78
2022/07/18 03:34:58;;;;;;;2.92;2.72;;;25.50;99.90;;;;;;5026837;28;20212;-78
2022/07/18 03:37:25;;;;;;;4.05;2.65;;;25.50;99.90;;;;;;5027208;28;20223;-78
2022/07/18 03:39:53;;;;;;;2.63;2.42;;;25.50;99.90;;;;;;5023329;28;20647;-79
2022/07/18 03:42:20;;;;;;;2.75;2.55;;;25.50;99.90;;;;;;5023322;28;20219;-78
2022/07/18 03:44:48;;;;;;;2.85;2.65;;;25.50;99.90;;;;;;5025701;28;20201;-78
2022/07/18 03:47:15;;;;;;;2.97;2.78;;;25.50;99.90;;;;;;5023885;28;20230;-78
2022/07/18 03:49:42;;;;;;;2.58;2.40;;;25.40;99.90;;;;;;5025780;28;20222;-79
2022/07/18 03:52:09;;;;;;;2.45;2.35;;;25.30;99.90;;;;;;5035405;28;20693;-78
2022/07/18 03:54:36;;;;;;;2.92;2.72;;;25.30;99.90;;;;;;5026105;28;20223;-78
2022/07/18 03:57:05;;;;;;;2.90;2.65;;;25.30;99.90;;;;;;5021276;28;20219;-78
2022/07/18 03:59:33;;;;;;;2.80;2.60;;;25.30;99.90;;;;;;5025756;28;20207;-79
2022/07/18 04:02:00;;;;;;;2.75;2.55;;;25.30;99.90;;;;;;5021050;28;20197;-79
2022/07/18 04:04:27;;;;;;;2.78;2.60;;;25.20;99.90;;;;;;5030953;28;20234;-77
2022/07/18 04:06:58;;;;;;;2.83;2.63;;;25.20;99.90;;;;;;5030329;28;20208;-77
2022/07/18 04:09:26;;;;;;;2.90;2.70;;;25.10;99.90;;;;;;5027627;28;20207;-78
2022/07/18 04:11:53;;;;;;;2.95;2.72;;;24.90;99.90;;;;;;5029156;28;20200;-79
2022/07/18 04:14:22;;;;;;;2.80;2.60;;;24.80;99.90;;;;;;5026664;28;20595;-79
2022/07/18 04:16:49;;;;;;;2.70;2.50;;;24.70;99.90;;;;;;5029013;28;20191;-77
2022/07/18 04:19:17;;;;;;;2.80;2.60;;;24.60;99.90;;;;;;5030522;28;20200;-80
2022/07/18 04:21:44;;;;;;;2.80;2.60;;;24.50;99.90;;;;;;5024482;28;20249;-78
2022/07/18 04:24:11;;;;;;;2.85;2.60;;;24.50;99.90;;;;;;5031584;28;20657;-78
2022/07/18 04:26:38;;;;;;;2.83;2.63;;;24.50;99.90;;;;;;5028845;28;20261;-79
2022/07/18 04:29:06;;;;;;;2.38;2.28;;;24.50;99.90;;;;;;5026713;28;20219;-77
2022/07/18 04:31:34;;;;;;;2.85;2.65;;;24.50;99.90;;;;;;5031072;28;20175;-78
2022/07/18 04:34:01;;;;;;;2.70;2.50;;;24.50;99.90;;;;;;5030380;28;20230;-78
2022/07/18 04:36:28;;;;;;;2.60;2.40;;;24.60;99.90;;;;;;5028027;28;20195;-80
2022/07/18 04:38:55;;;;;;;2.92;2.72;;;24.60;99.90;;;;;;5031007;28;20226;-78
2022/07/18 04:41:24;;;;;;;2.63;2.50;;;24.60;99.90;;;;;;5040272;28;20199;-79
2022/07/18 04:46:45;;;;;;;4.07;2.67;;;24.70;99.90;;;;;;5017197;28;20227;-78
2022/07/18 04:49:12;;;;;;;3.38;3.08;;;24.70;99.90;;;;;;5026447;28;20674;-79
2022/07/18 04:51:39;;;;;;;3.58;3.28;;;24.80;99.90;;;;;;5027284;28;20202;-78
2022/07/18 04:54:08;;;;;;;3.05;2.83;;;24.90;99.90;;;;;;5027761;28;20254;-77
2022/07/18 04:56:35;;;;;;;3.30;3.00;;;25.00;99.90;;;;;;5023652;28;20203;-79
2022/07/18 04:59:02;;;;;;;3.30;3.10;;;25.10;99.90;;;;;;5027875;28;20344;-79
2022/07/18 05:01:29;;;;;;;3.00;2.80;;;25.20;99.90;;;;;;5027543;28;20681;-79
2022/07/18 05:03:57;;;;;;;3.40;3.10;;;25.20;99.90;;;;;;5026201;28;20565;-78
2022/07/18 05:06:24;;;;;;;2.83;2.63;;;25.30;99.90;;;;;;5024567;28;20246;-78
2022/07/18 05:08:51;;;;;;;3.55;3.25;;;25.40;99.90;;;;;;5031733;28;20230;-78
2022/07/18 05:11:19;;;;;;;3.17;2.97;;;25.50;99.90;;;;;;5030380;28;20662;-79
2022/07/18 05:27:37;;;;;;;3.35;3.15;;;25.20;99.90;;;;;;5029535;28;20261;-79
2022/07/18 05:30:07;;;;;;;3.70;3.40;;;25.30;99.90;;;;;;5029775;28;20203;-78
2022/07/18 05:32:35;;;;;;;3.50;3.30;;;25.30;99.90;;;;;;5041943;28;20238;-80
2022/07/18 05:35:02;;;;;;;4.32;3.85;;;25.50;99.90;;;;;;5035874;28;20575;-79
2022/07/18 05:37:29;;;;;;;4.15;3.75;;;25.60;99.90;;;;;;5033413;28;20219;-80
2022/07/18 05:39:56;;;;;;;4.03;3.72;;;25.70;99.90;;;;;;5033734;28;20196;-79
2022/07/18 05:42:23;;;;;;;3.88;3.53;;;25.90;99.90;;;;;;5032824;28;20230;-79
2022/07/18 05:44:51;;;;;;;3.80;3.50;;;26.00;99.90;;;;;;5030695;28;20200;-77
2022/07/18 05:47:18;;;;;;;3.97;3.58;;;26.20;99.90;;;;;;5030122;28;20637;-78
2022/07/18 05:49:46;;;;;;;4.35;3.67;;;26.40;99.90;;;;;;5032622;28;20196;-78
2022/07/18 05:52:13;;;;;;;4.28;3.97;;;26.50;99.90;;;;;;5028277;28;20246;-80
2022/07/18 05:54:40;;;;;;;4.60;4.20;;;26.40;99.90;;;;;;5029661;28;20239;-80
2022/07/18 05:57:07;;;;;;;4.00;3.70;;;26.40;99.90;;;;;;5022396;28;20223;-80
2022/07/18 05:59:34;;;;;;;5.32;4.47;;;26.30;99.90;;;;;;5019909;28;20200;-79
2022/07/18 06:02:03;;;;;;;5.55;3.85;;;26.40;99.90;;;;;;5022370;28;20681;-78
2022/07/18 06:04:30;;;;;;;4.35;4.05;;;26.40;99.90;;;;;;5027504;28;20231;-80
2022/07/18 06:06:57;;;;;;;4.50;4.10;;;26.50;99.90;;;;;;5033688;28;20625;-78
2022/07/18 06:09:24;;;;;;;4.05;3.75;;;26.50;99.90;;;;;;5030738;28;20199;-78
2022/07/18 06:11:52;;;;;;;3.58;3.28;;;26.50;99.90;;;;;;5026055;28;20573;-78
2022/07/18 06:14:19;;;;;;;4.20;3.80;;;26.70;99.90;;;;;;5028921;28;20220;-77
2022/07/18 06:16:46;;;;;;;3.90;3.60;;;26.90;99.90;;;;;;5027635;28;20580;-78
2022/07/18 06:19:15;;;;;;;4.13;3.72;;;27.00;99.90;;;;;;5030954;28;20207;-79
2022/07/18 06:21:42;;;;;;;3.42;3.20;;;27.10;99.90;;;;;;5032751;28;20204;-79
2022/07/18 06:24:09;;;;;;;4.30;3.85;;;27.10;99.90;;;;;;5035406;28;20231;-78
2022/07/18 06:26:36;;;;;;;4.40;4.00;;;27.10;99.90;;;;;;5033868;28;20216;-80
2022/07/18 06:29:03;;;;;;;5.10;3.70;;;27.10;99.90;;;;;;5031587;28;20281;-79
2022/07/18 06:31:31;;;;;;;4.43;4.03;;;26.80;99.90;;;;;;5034092;28;20196;-79
2022/07/18 06:33:58;;;;;;;4.47;4.07;;;26.40;99.90;;;;;;5033690;28;20577;-80
2022/07/18 06:36:26;;;;;;;4.32;3.92;;;26.30;99.90;;;;;;5025444;28;20204;-79
2022/07/18 06:38:53;;;;;;;4.15;3.85;;;26.10;99.90;;;;;;5024403;28;20223;-78
2022/07/18 06:41:21;;;;;;;4.18;3.88;;;26.10;99.90;;;;;;5033146;28;20199;-79
2022/07/18 06:43:48;;;;;;;4.10;3.80;;;26.30;99.90;;;;;;5027482;28;20227;-78
2022/07/18 06:46:15;;;;;;;5.55;3.80;;;26.40;99.90;;;;;;5025738;28;20231;-79
2022/07/18 06:48:42;;;;;;;4.40;4.10;;;26.80;99.90;;;;;;5030024;28;20736;-78
2022/07/18 06:51:09;;;;;;;4.03;3.72;;;27.00;99.90;;;;;;5030784;28;20548;-77
2022/07/18 06:53:37;;;;;;;4.30;4.00;;;27.00;99.90;;;;;;5030747;28;20230;-79
2022/07/18 06:56:06;;;;;;;4.38;4.07;;;27.20;99.90;;;;;;5035678;28;20200;-78
2022/07/18 06:58:33;;;;;;;4.70;4.30;;;27.30;99.90;;;;;;5034290;28;20223;-77
2022/07/18 07:01:00;;;;;;;5.03;4.50;;;27.30;99.90;;;;;;5032634;28;20270;-79
2022/07/18 07:03:27;;;;;;;4.05;3.75;;;27.40;99.90;;;;;;5029410;28;20242;-79
2022/07/18 07:05:54;;;;;;;5.25;4.20;;;27.50;99.90;;;;;;5025987;28;20200;-78
2022/07/18 07:08:22;;;;;;;4.47;4.07;;;27.60;99.90;;;;;;5026445;28;20219;-79
2022/07/18 07:10:50;;;;;;;5.80;4.20;;;27.60;99.90;;;;;;5028884;28;20199;-77
2022/07/18 07:13:17;;;;;;;4.20;3.90;;;27.70;99.90;;;;;;5025822;28;20229;-79
2022/07/18 07:15:44;;;;;;;3.65;3.35;;;27.70;99.90;;;;;;5046678;28;20211;-79
2022/07/18 07:18:11;;;;;;;9.20;4.22;;;27.80;99.90;;;;;;5025570;28;20219;-78
2022/07/18 07:20:38;;;;;;;4.63;4.18;;;27.90;99.90;;;;;;5031179;28;20196;-78
2022/07/18 07:23:07;;;;;;;4.47;4.10;;;27.90;99.90;;;;;;5028144;28;20253;-78
2022/07/18 07:25:35;;;;;;;5.10;4.13;;;28.10;99.90;;;;;;5027285;28;20199;-80
2022/07/18 07:28:04;;;;;;;5.10;4.70;;;28.30;99.90;;;;;;5026076;28;20223;-80
2022/07/18 07:30:32;;;;;;;4.30;3.90;;;28.50;99.90;;;;;;5029448;28;20207;-78
2022/07/18 07:33:00;;;;;;;4.80;4.40;;;28.60;99.90;;;;;;5028372;28;20231;-78
2022/07/18 07:35:27;;;;;;;4.97;4.40;;;28.50;99.90;;;;;;5027161;28;20199;-79
2022/07/18 07:37:56;;;;;;;4.95;4.53;;;28.50;99.90;;;;;;5029380;28;20218;-80
2022/07/18 07:40:24;;;;;;;5.63;4.20;;;28.50;99.90;;;;;;5028236;28;20203;-78
2022/07/18 07:42:51;;;;;;;4.45;4.07;;;28.60;99.90;;;;;;5032489;28;20254;-78
2022/07/18 07:45:21;;;;;;;4.28;3.88;;;28.60;99.90;;;;;;5025266;28;20200;-78
2022/07/18 07:47:48;;;;;;;4.13;3.72;;;28.70;99.90;;;;;;5019692;28;20219;-79
2022/07/18 07:50:15;;;;;;;4.13;3.83;;;28.70;99.90;;;;;;5023477;28;20190;-78
2022/07/18 07:52:42;;;;;;;5.13;4.40;;;28.80;99.90;;;;;;5023957;28;20231;-77
2022/07/18 07:55:09;;;;;;;4.75;4.35;;;29.00;99.90;;;;;;5024672;28;20203;-76
2022/07/18 07:57:36;;;;;;;4.20;3.90;;;29.10;99.90;;;;;;5019855;28;20891;-77
2022/07/18 08:00:08;;;;;;;4.68;4.32;;;29.20;99.90;;;;;;5021894;28;20670;-76
2022/07/18 08:02:36;;;;;;;4.18;3.88;;;29.20;99.90;;;;;;5017790;28;20255;-77
2022/07/18 08:05:04;;;;;;;4.63;3.83;;;29.30;99.90;;;;;;5029219;28;20318;-78
2022/07/18 08:07:31;;;;;;;4.53;4.13;;;29.40;99.90;;;;;;5027711;28;20597;-75
2022/07/18 08:09:58;;;;;;;5.78;4.65;;;29.50;99.90;;;;;;5019815;28;20279;-76
2022/07/18 08:12:26;;;;;;;4.28;3.97;;;29.50;99.90;;;;;;5021917;28;20224;-78
2022/07/18 08:14:53;;;;;;;4.90;4.50;;;29.60;99.90;;;;;;5019537;28;20200;-77
2022/07/18 08:17:20;;;;;;;4.57;4.22;;;29.70;99.90;;;;;;5021758;28;20223;-77
2022/07/18 08:19:48;;;;;;;5.50;4.20;;;29.60;99.90;;;;;;5020654;28;20670;-78
2022/07/18 08:22:15;;;;;;;4.60;4.30;;;29.50;99.90;;;;;;5022321;28;20230;-77
2022/07/18 08:24:42;;;;;;;4.47;4.13;;;29.60;99.90;;;;;;5021438;28;20428;-76
2022/07/18 08:27:11;;;;;;;4.65;4.25;;;29.50;99.90;;;;;;5024961;28;20234;-76
2022/07/18 08:29:38;;;;;;;5.57;3.97;;;29.70;99.90;;;;;;5018864;28;20210;-77
2022/07/18 08:32:05;;;;;;;4.50;3.90;;;29.90;99.90;;;;;;5024952;28;20242;-76
2022/07/18 08:34:32;;;;;;;4.07;3.78;;;30.10;99.90;;;;;;5024368;28;20281;-77
2022/07/18 08:37:01;;;;;;;5.05;4.40;;;30.20;99.90;;;;;;5025978;28;20196;-76
2022/07/18 08:39:28;;;;;;;4.55;4.18;;;30.30;99.90;;;;;;5023432;28;20196;-76
2022/07/18 08:41:57;;;;;;;4.60;4.20;;;30.30;99.90;;;;;;5023668;28;20191;-78
2022/07/18 08:44:24;;;;;;;4.10;3.80;;;30.30;99.90;;;;;;5021859;28;20229;-77
2022/07/18 08:46:53;;;;;;;3.88;3.58;;;30.50;99.90;;;;;;5024035;28;20245;-78
2022/07/18 08:49:22;;;;;;;3.92;3.53;;;30.60;99.90;;;;;;5020502;28;20196;-78
2022/07/18 08:51:49;;;;;;;3.95;3.65;;;30.80;99.90;;;;;;5021746;28;20199;-77
2022/07/18 08:54:18;;;;;;;4.70;4.22;;;30.90;99.90;;;;;;5022035;28;20230;-77
2022/07/18 08:56:45;;;;;;;4.25;3.80;;;31.00;99.90;;;;;;5026308;28;20192;-77
2022/07/18 08:59:12;;;;;;;5.28;4.22;;;31.10;99.90;;;;;;5024197;28;20200;-77
2022/07/18 09:01:39;;;;;;;7.43;4.65;;;31.20;99.90;;;;;;5023331;28;20192;-78
2022/07/18 09:04:18;;;;;;;4.53;4.20;;;31.20;99.90;;;;;;5024398;28;20230;-78
2022/07/18 09:06:46;;;;;;;4.80;4.40;;;31.10;99.90;;;;;;5021467;28;20215;-79
2022/07/18 09:09:15;;;;;;;3.83;3.60;;;31.00;99.90;;;;;;5022938;28;20659;-80
2022/07/18 09:11:54;;;;;;;3.97;3.67;;;31.00;99.90;;;;;;5023080;28;22483;-79
2022/07/18 09:14:45;;;;;;;6.30;4.45;;;31.20;99.90;;;;;;5020589;28;20215;-77
2022/07/18 09:17:14;;;;;;;4.55;4.13;;;31.20;99.90;;;;;;5004807;28;20238;-77
2022/07/18 09:19:43;;;;;;;4.82;4.32;;;31.20;99.90;;;;;;5018546;28;20199;-75
2022/07/18 09:22:21;;;;;;;4.25;3.95;;;31.40;99.90;;;;;;5017112;28;20219;-76
2022/07/18 09:24:53;;;;;;;4.28;3.88;;;31.30;99.90;;;;;;5018201;28;20195;-77
2022/07/18 09:27:28;;;;;;;4.53;3.50;;;31.40;99.90;;;;;;5016934;28;20223;-78
2022/07/18 09:30:21;;;;;;;3.83;3.53;;;31.60;99.90;;;;;;5018473;28;22405;-78
2022/07/18 09:32:51;;;;;;;3.70;3.50;;;31.70;99.90;;;;;;5019129;28;20994;-76
2022/07/18 09:35:20;;;;;;;5.13;4.00;;;31.80;99.90;;;;;;5022242;28;20207;-76
2022/07/18 09:38:02;;;;;;;5.47;4.00;;;31.80;99.90;;;;;;5019662;28;20235;-76
2022/07/18 09:40:32;;;;;;;3.72;3.42;;;31.80;99.90;;;;;;5017790;28;20199;-75
2022/07/18 09:43:03;;;;;;;3.85;3.55;;;31.80;99.90;;;;;;5018077;28;20223;-79
2022/07/18 09:45:32;;;;;;;4.50;3.83;;;32.00;99.90;;;;;;5022039;28;20609;-77
2022/07/18 09:48:01;;;;;;;4.20;3.67;;;31.90;99.90;;;;;;5022069;28;20226;-77
2022/07/18 09:50:30;;;;;;;4.50;4.20;;;32.00;99.90;;;;;;5022104;28;20659;-78
2022/07/18 09:53:06;;;;;;;4.15;3.85;;;32.00;99.90;;;;;;5020574;28;20224;-77
2022/07/18 09:55:34;;;;;;;5.20;4.25;;;32.00;99.90;;;;;;5023577;28;20198;-77
2022/07/18 09:58:05;;;;;;;4.10;3.70;;;32.00;99.90;;;;;;5027238;28;20870;-76
2022/07/18 10:00:35;;;;;;;4.65;4.10;;;32.00;99.90;;;;;;5023034;28;20211;-76
2022/07/18 10:03:03;;;;;;;4.15;3.78;;;32.10;99.90;;;;;;5023525;28;20232;-77
2022/07/18 10:05:33;;;;;;;3.97;3.67;;;32.20;99.90;;;;;;5021492;28;20207;-76
2022/07/18 10:08:00;;;;;;;4.68;4.28;;;32.20;99.90;;;;;;5021906;28;20750;-77
2022/07/18 10:10:30;;;;;;;4.63;4.22;;;32.20;99.90;;;;;;5023700;28;20206;-77
2022/07/18 10:12:59;;;;;;;4.50;4.10;;;32.10;99.90;;;;;;5020439;28;20238;-77
2022/07/18 10:15:30;;;;;;;4.03;3.72;;;32.00;99.90;;;;;;5023497;28;20200;-77
2022/07/18 10:17:57;;;;;;;3.90;3.65;;;32.00;99.90;;;;;;5019194;28;20688;-76
2022/07/18 10:20:30;;;;;;;5.82;3.90;;;32.10;99.90;;;;;;5017343;28;20585;-77
2022/07/18 10:23:02;;;;;;;4.00;3.70;;;32.40;99.90;;;;;;5020227;28;20227;-77
2022/07/18 10:25:30;;;;;;;4.97;4.47;;;32.50;99.90;;;;;;5024291;28;20618;-76
2022/07/18 10:28:06;;;;;;;4.28;3.92;;;32.70;99.90;;;;;;5022326;28;20289;-77
2022/07/18 10:30:42;;;;;;;4.85;3.60;;;32.80;99.90;;;;;;5023929;28;20203;-76
2022/07/18 10:33:41;;;;;;;3.95;3.65;;;32.80;99.90;;;;;;5019879;28;20322;-77
2022/07/18 10:36:11;;;;;;;5.22;4.25;;;33.10;99.90;;;;;;5021668;28;20207;-77
2022/07/18 10:38:38;;;;;;;5.78;4.05;;;33.30;99.90;;;;;;5022868;28;20738;-77
2022/07/18 10:41:11;;;;;;;4.47;4.07;;;33.20;99.90;;;;;;5021055;28;20706;-80
2022/07/18 10:43:41;;;;;;;5.55;4.10;;;33.30;99.90;;;;;;5027348;28;20227;-80
2022/07/18 10:46:10;;;;;;;4.30;4.00;;;33.40;99.90;;;;;;5028513;28;20567;-79
2022/07/18 10:48:56;;;;;;;5.75;4.32;;;33.60;99.90;;;;;;5035353;28;20242;-80
2022/07/18 10:51:34;;;;;;;6.28;4.63;;;33.60;99.90;;;;;;5034797;28;20198;-79
2022/07/18 10:54:19;;;;;;;4.20;3.90;;;33.40;99.90;;;;;;5032136;28;20219;-79
2022/07/18 10:57:09;;;;;;;5.00;4.50;;;33.40;99.90;;;;;;5034892;28;20191;-80
2022/07/18 10:59:38;;;;;;;4.60;4.20;;;33.50;99.90;;;;;;5031664;28;20196;-80
2022/07/18 11:02:11;;;;;;;6.55;4.38;;;33.50;99.90;;;;;;5031160;28;20234;-78
2022/07/18 11:04:41;;;;;;;4.97;4.55;;;33.60;99.90;;;;;;5021255;28;20219;-77
2022/07/18 11:07:14;;;;;;;4.82;4.45;;;33.50;99.90;;;;;;5023405;28;20220;-78
2022/07/18 11:09:43;;;;;;;4.45;4.05;;;33.40;99.50;;;;;;5024367;28;20204;-76
2022/07/18 11:12:27;;;;;;;5.70;4.50;;;33.40;99.40;;;;;;5024648;28;20227;-76
2022/07/18 11:15:10;;;;;;;5.53;4.40;;;33.60;99.90;;;;;;5025387;28;20211;-78
2022/07/18 11:18:02;;;;;;;4.60;4.20;;;33.80;99.90;;;;;;5021069;28;20220;-78
2022/07/18 11:20:45;;;;;;;6.85;4.55;;;33.90;99.20;;;;;;5024291;28;20692;-79
2022/07/18 11:23:36;;;;;;;8.23;4.97;;;34.00;99.90;;;;;;5025923;28;20227;-78
2022/07/18 11:26:42;;;;;;;5.88;4.22;;;34.10;99.90;;;;;;5026960;28;20234;-79
2022/07/18 11:29:11;;;;;;;5.13;4.22;;;34.30;99.30;;;;;;5022475;28;20239;-80
2022/07/18 11:31:45;;;;;;;4.93;4.53;;;34.30;97.90;;;;;;5029904;28;20200;-79
2022/07/18 11:34:14;;;;;;;4.80;4.07;;;34.20;96.10;;;;;;5024402;28;20609;-78
2022/07/18 11:36:43;;;;;;;4.13;3.83;;;34.10;96.50;;;;;;5027474;28;20639;-77
2022/07/18 11:39:12;;;;;;;4.95;4.55;;;34.10;96.10;;;;;;5027496;28;20212;-77
2022/07/18 11:41:41;;;;;;;4.30;3.90;;;34.10;96.30;;;;;;5027756;28;20559;-79
2022/07/18 11:44:18;;;;;;;4.72;4.32;;;34.10;96.20;;;;;;5024955;28;20804;-77
2022/07/18 11:46:46;;;;;;;6.00;4.30;;;34.20;96.30;;;;;;5043951;23;20250;-75
2022/07/18 11:49:14;;;;;;;6.20;4.22;;;34.30;96.40;;;;;;5050585;28;20222;-75
2022/07/18 11:51:43;;;;;;;5.78;5.05;;;34.40;96.30;;;;;;5055731;28;20198;-76
2022/07/18 11:54:12;;;;;;;5.38;4.45;;;34.40;95.70;;;;;;5034567;28;20243;-76
2022/07/18 11:56:49;;;;;;;4.93;4.07;;;34.40;94.60;;;;;;5037623;28;20596;-76
2022/07/18 11:59:16;;;;;;;4.40;4.00;;;34.50;94.80;;;;;;5036403;28;20708;-75
2022/07/18 12:01:44;;;;;;;5.25;4.20;;;34.70;94.20;;;;;;5035846;28;20207;-76
2022/07/18 12:04:19;;;;;;;6.13;3.50;;;34.70;93.60;;;;;;5039879;28;20223;-75
2022/07/18 12:06:47;;;;;;;4.75;4.35;;;34.80;93.20;;;;;;5040912;28;20246;-75
2022/07/18 12:09:27;;;;;;;5.35;4.38;;;34.90;93.20;;;;;;5031586;28;20719;-73
2022/07/18 12:11:55;;;;;;;4.47;3.88;;;34.70;92.80;;;;;;5035443;28;20227;-75
2022/07/18 12:14:22;;;;;;;4.25;3.95;;;34.70;93.00;;;;;;5035236;28;20194;-76
2022/07/18 12:16:57;;;;;;;4.95;4.63;;;34.80;92.40;;;;;;5040920;28;20723;-73
2022/07/18 12:19:35;;;;;;;4.20;3.90;;;34.80;93.50;;;;;;5044436;28;20203;-75
2022/07/18 12:22:07;;;;;;;4.28;3.97;;;34.90;93.80;;;;;;5045737;28;20225;-76
2022/07/18 12:24:37;;;;;;;4.65;4.25;;;35.10;92.70;;;;;;5051771;28;20731;-76
2022/07/18 12:27:14;;;;;;;4.65;4.25;;;35.00;92.10;;;;;;5045054;28;20308;-76
2022/07/18 12:30:08;;;;;;;4.53;4.13;;;34.90;92.70;;;;;;5039017;28;20721;-76
2022/07/18 12:32:55;;;;;;;4.85;4.43;;;34.90;93.40;;;;;;5041722;28;20226;-76
2022/07/18 12:35:25;;;;;;;4.63;4.22;;;34.90;92.40;;;;;;5053786;28;20329;-75
2022/07/18 12:37:57;;;;;;;4.47;4.00;;;34.80;93.10;;;;;;5055060;28;20302;-76
2022/07/18 12:40:26;;;;;;;3.97;3.60;;;34.90;92.10;;;;;;5054545;28;22112;-76
2022/07/18 12:43:07;;;;;;;4.25;3.85;;;35.00;92.20;;;;;;5056707;28;20225;-76
2022/07/18 12:45:34;;;;;;;4.10;3.80;;;35.20;91.10;;;;;;5061206;28;20205;-75
2022/07/18 12:48:01;;;;;;;4.38;3.50;;;35.30;91.00;;;;;;5057894;28;20592;-76
2022/07/18 12:50:30;;;;;;;5.18;3.63;;;35.50;90.70;;;;;;5055510;28;20216;-74
2022/07/18 12:52:58;;;;;;;4.28;3.88;;;35.50;90.70;;;;;;5056089;28;20225;-76
2022/07/18 12:55:25;;;;;;;6.15;4.30;;;35.70;90.00;;;;;;5058822;28;20200;-76
2022/07/18 12:57:52;;;;;;;4.20;3.90;;;35.50;90.50;;;;;;5058844;28;20214;-75
2022/07/18 13:00:19;;;;;;;4.88;4.38;;;34.90;90.90;;;;;;5053457;28;20198;-75
2022/07/18 13:02:47;;;;;;;5.20;4.07;;;34.60;91.30;;;;;;5054754;28;20217;-76
2022/07/18 13:05:14;;;;;;;8.35;4.53;;;34.10;91.40;;;;;;5049937;28;20202;-77
2022/07/18 13:07:43;;;;;;;5.10;3.90;;;33.90;92.00;;;;;;5054418;28;20226;-76
2022/07/18 13:10:10;;;;;;;4.55;3.80;;;33.70;92.10;;;;;;5054917;28;20207;-76
2022/07/18 13:12:37;;;;;;;4.45;4.00;;;33.70;92.10;;;;;;5055940;28;20225;-75
2022/07/18 13:15:05;;;;;;;4.07;3.78;;;34.00;92.00;;;;;;5060177;28;20233;-76
2022/07/18 13:17:32;;;;;;;4.35;3.60;;;34.00;92.10;;;;;;5062467;28;20226;-75